createdAt,value
2022-09-24T00:38:40.130Z,23.10
2022-09-24T00:39:42.167Z,35.50
2022-09-24T00:40:47.484Z,33.38
2022-09-24T00:41:49.491Z,68.63
2022-09-24T00:42:54.050Z,47.40
2022-09-24T00:43:56.716Z,19.85
2022-09-24T00:45:04.777Z,15.98
2022-09-24T00:46:13.502Z,16.00
2022-09-24T00:47:26.183Z,32.40
2022-09-24T00:48:28.343Z,33.13
2022-09-24T00:49:32.961Z,41.88
2022-09-24T00:50:35.921Z,28.67
2022-09-24T00:51:42.612Z,22.00
2022-09-24T00:52:48.641Z,38.15
2022-09-24T00:54:02.699Z,55.67
2022-09-24T00:55:05.824Z,23.10
2022-09-24T00:56:15.630Z,31.95
2022-09-24T00:57:17.771Z,37.60
2022-09-24T00:58:23.109Z,30.60
2022-09-24T00:59:26.062Z,30.70
2022-09-24T01:00:31.165Z,19.40
2022-09-24T01:01:33.425Z,21.25
2022-09-24T01:02:39.907Z,32.17
2022-09-24T01:03:42.615Z,26.90
2022-09-24T01:04:49.344Z,24.27
2022-09-24T01:05:53.787Z,27.35
2022-09-24T01:06:59.385Z,34.13
2022-09-24T01:08:01.830Z,21.10
2022-09-24T01:09:08.991Z,22.00
2022-09-24T01:10:11.308Z,16.23
2022-09-24T01:11:41.240Z,18.55
2022-09-24T01:12:53.804Z,39.55
2022-09-24T01:14:12.570Z,48.50
2022-09-24T01:15:27.339Z,33.00
2022-09-24T01:16:38.271Z,13.65
2022-09-24T01:17:51.322Z,16.05
2022-09-24T01:19:05.840Z,25.52
2022-09-24T01:20:29.809Z,32.33
2022-09-24T01:21:39.492Z,25.02
2022-09-24T01:22:57.512Z,23.33
2022-09-24T01:24:25.200Z,29.38
2022-09-24T01:25:40.432Z,32.45
2022-09-24T01:26:57.636Z,26.02
2022-09-24T01:28:16.633Z,22.05
2022-09-24T01:29:42.280Z,16.48
2022-09-24T01:30:48.336Z,25.88
2022-09-24T01:31:57.132Z,29.50
2022-09-24T01:33:05.033Z,24.73
2022-09-24T01:34:09.306Z,22.13
2022-09-24T01:35:18.888Z,24.52
2022-09-24T01:36:23.085Z,21.73
2022-09-24T01:37:31.531Z,31.13
2022-09-24T01:38:38.675Z,20.08
2022-09-24T01:39:47.558Z,28.70
2022-09-24T01:40:51.995Z,19.83
2022-09-24T01:41:57.444Z,20.27
2022-09-24T01:43:02.409Z,25.65
2022-09-24T01:44:09.482Z,20.90
2022-09-24T01:45:14.900Z,23.08
2022-09-24T01:46:22.389Z,30.65
2022-09-24T01:47:34.379Z,21.48
2022-09-24T01:48:40.460Z,26.98
2022-09-24T01:49:42.695Z,46.75
2022-09-24T01:50:54.663Z,33.78
2022-09-24T01:52:01.477Z,20.95
2022-09-24T01:53:12.820Z,26.70
2022-09-24T01:54:21.166Z,39.13
2022-09-24T01:55:31.292Z,24.15
2022-09-24T01:56:38.971Z,37.15
2022-09-24T01:57:48.032Z,50.05
2022-09-24T01:58:53.885Z,47.15
2022-09-24T02:00:02.331Z,44.85
2022-09-24T02:01:10.848Z,27.00
2022-09-24T02:02:21.261Z,38.47
2022-09-24T02:03:29.892Z,51.00
2022-09-24T02:04:38.685Z,44.60
2022-09-24T02:05:51.005Z,29.65
2022-09-24T02:06:57.294Z,28.90
2022-09-24T02:08:08.826Z,16.67
2022-09-24T02:09:29.487Z,25.30
2022-09-24T02:10:38.778Z,22.55
2022-09-24T02:11:40.774Z,42.20
2022-09-24T02:12:48.849Z,29.75
2022-09-24T02:13:57.370Z,35.88
2022-09-24T02:15:05.947Z,22.75
2022-09-24T02:16:16.317Z,45.92
2022-09-24T02:17:21.970Z,32.42
2022-09-24T02:18:28.639Z,21.92
2022-09-24T02:19:37.525Z,22.02
2022-09-24T02:20:42.594Z,24.65
2022-09-24T02:21:49.003Z,40.60
2022-09-24T02:22:54.975Z,24.98
2022-09-24T02:24:04.610Z,30.90
2022-09-24T02:25:10.834Z,31.98
2022-09-24T02:26:16.305Z,40.90
2022-09-24T02:27:19.523Z,36.20
2022-09-24T02:28:24.307Z,38.22
2022-09-24T02:29:26.850Z,36.30
2022-09-24T02:30:32.266Z,28.25
2022-09-24T02:31:40.841Z,34.75
2022-09-24T02:32:47.247Z,30.08
2022-09-24T02:34:06.148Z,40.60
2022-09-24T02:35:11.239Z,49.72
2022-09-24T02:36:13.597Z,29.58
2022-09-24T02:37:20.416Z,42.20
2022-09-24T02:38:23.272Z,26.60
2022-09-24T02:39:28.307Z,27.15
2022-09-24T02:40:30.371Z,19.17
2022-09-24T02:41:35.390Z,21.00
2022-09-24T02:42:37.966Z,22.38
2022-09-24T02:43:42.535Z,29.00
2022-09-24T02:44:44.499Z,28.45
2022-09-24T02:45:49.116Z,26.35
2022-09-24T02:46:53.747Z,29.17
2022-09-24T02:47:58.335Z,22.25
2022-09-24T02:49:00.287Z,45.08
2022-09-24T02:50:04.806Z,39.30
2022-09-24T02:51:06.999Z,17.17
2022-09-24T02:52:12.078Z,22.52
2022-09-24T02:53:14.056Z,30.52
2022-09-24T02:54:18.899Z,22.05
2022-09-24T02:55:21.607Z,26.73
2022-09-24T02:56:26.137Z,20.00
2022-09-24T02:57:28.099Z,18.80
2022-09-24T02:58:33.493Z,14.13
2022-09-24T02:59:36.472Z,16.02
2022-09-24T03:00:41.470Z,25.05
2022-09-24T03:01:46.569Z,32.67
2022-09-24T03:02:54.034Z,27.90
2022-09-24T03:03:56.264Z,29.00
2022-09-24T03:05:00.822Z,33.53
2022-09-24T03:06:02.794Z,26.17
2022-09-24T03:07:07.842Z,33.72
2022-09-24T03:08:09.808Z,24.83
2022-09-24T03:09:15.122Z,44.03
2022-09-24T03:10:17.391Z,26.85
2022-09-24T03:11:22.736Z,39.38
2022-09-24T03:12:27.306Z,34.25
2022-09-24T03:13:29.365Z,35.85
2022-09-24T03:14:33.864Z,28.10
2022-09-24T03:15:35.859Z,21.23
2022-09-24T03:16:40.489Z,32.95
2022-09-24T03:17:42.434Z,38.50
2022-09-24T03:18:50.185Z,41.90
2022-09-24T03:19:52.123Z,30.38
2022-09-24T03:21:00.122Z,35.85
2022-09-24T03:22:02.317Z,43.13
2022-09-24T03:23:07.416Z,39.33
2022-09-24T03:24:09.616Z,32.08
2022-09-24T03:25:14.218Z,23.77
2022-09-24T03:26:18.019Z,31.35
2022-09-24T03:27:22.852Z,33.58
2022-09-24T03:28:24.955Z,26.45
2022-09-24T03:29:41.762Z,29.80
2022-09-24T03:31:02.716Z,33.28
2022-09-24T03:32:04.908Z,17.33
2022-09-24T03:33:06.869Z,17.40
2022-09-24T03:34:13.908Z,18.08
2022-09-24T03:35:16.105Z,15.60
2022-09-24T03:36:22.890Z,18.88
2022-09-24T03:37:24.875Z,19.98
2022-09-24T03:38:30.243Z,25.33
2022-09-24T03:39:32.188Z,13.98
2022-09-24T03:40:36.928Z,29.50
2022-09-24T03:41:41.715Z,15.45
2022-09-24T03:42:43.865Z,16.98
2022-09-24T03:43:48.633Z,19.80
2022-09-24T03:44:51.093Z,14.80
2022-09-24T03:45:56.089Z,20.85
2022-09-24T03:46:58.079Z,17.98
2022-09-24T03:48:02.664Z,27.73
2022-09-24T03:49:04.610Z,23.27
2022-09-24T03:50:12.721Z,14.25
2022-09-24T03:51:18.716Z,29.20
2022-09-24T03:52:23.357Z,32.78
2022-09-24T03:53:25.345Z,24.33
2022-09-24T03:54:30.045Z,22.50
2022-09-24T03:55:32.905Z,32.35
2022-09-24T03:56:37.472Z,40.10
2022-09-24T03:57:39.517Z,46.40
2022-09-24T03:58:48.235Z,39.80
2022-09-24T03:59:54.258Z,29.35
2022-09-24T04:00:59.208Z,37.85
2022-09-24T04:02:01.305Z,14.90
2022-09-24T04:03:05.968Z,33.40
2022-09-24T04:04:08.028Z,22.17
2022-09-24T04:05:15.804Z,26.95
2022-09-24T04:06:23.427Z,28.35
2022-09-24T04:07:29.562Z,26.15
2022-09-24T04:08:32.198Z,17.02
2022-09-24T04:09:36.826Z,26.23
2022-09-24T04:10:38.791Z,26.33
2022-09-24T04:11:43.552Z,42.95
2022-09-24T04:12:46.193Z,18.55
2022-09-24T04:13:50.768Z,27.48
2022-09-24T04:14:52.733Z,42.97
2022-09-24T04:15:57.426Z,31.30
2022-09-24T04:16:59.540Z,26.58
2022-09-24T04:18:04.169Z,35.28
2022-09-24T04:19:08.208Z,28.25
2022-09-24T04:20:15.587Z,38.58
2022-09-24T04:21:17.548Z,25.42
2022-09-24T04:22:22.451Z,37.08
2022-09-24T04:23:27.030Z,29.77
2022-09-24T04:24:28.969Z,28.38
2022-09-24T04:25:35.074Z,42.97
2022-09-24T04:26:37.095Z,31.83
2022-09-24T04:27:41.647Z,25.23
2022-09-24T04:28:43.618Z,27.42
2022-09-24T04:29:48.216Z,20.55
2022-09-24T04:30:50.235Z,19.15
2022-09-24T04:31:54.886Z,23.35
2022-09-24T04:33:00.340Z,32.00
2022-09-24T04:34:04.962Z,29.50
2022-09-24T04:35:08.467Z,29.40
2022-09-24T04:36:15.541Z,31.20
2022-09-24T04:37:17.506Z,32.42
2022-09-24T04:38:22.134Z,19.50
2022-09-24T04:39:26.870Z,38.80
2022-09-24T04:40:31.628Z,30.02
2022-09-24T04:41:35.143Z,15.57
2022-09-24T04:42:40.259Z,11.75
2022-09-24T04:43:43.022Z,11.32
2022-09-24T04:44:51.713Z,18.83
2022-09-24T04:45:57.116Z,20.02
2022-09-24T04:47:03.102Z,20.20
2022-09-24T04:48:05.635Z,14.77
2022-09-24T04:49:11.879Z,28.15
2022-09-24T04:50:14.157Z,35.88
2022-09-24T04:51:22.137Z,30.33
2022-09-24T04:52:26.890Z,39.05
2022-09-24T04:53:31.467Z,30.00
2022-09-24T04:54:33.750Z,34.30
2022-09-24T04:55:38.317Z,30.40
2022-09-24T04:56:40.342Z,35.80
2022-09-24T04:57:45.249Z,31.15
2022-09-24T04:58:50.697Z,28.77
2022-09-24T04:59:57.870Z,29.63
2022-09-24T05:01:04.834Z,22.63
2022-09-24T05:02:09.665Z,21.73
2022-09-24T05:03:14.597Z,39.83
2022-09-24T05:04:17.198Z,27.25
2022-09-24T05:05:21.747Z,33.40
2022-09-24T05:06:26.410Z,23.33
2022-09-24T05:07:34.042Z,28.27
2022-09-24T05:08:36.023Z,59.20
2022-09-24T05:09:40.682Z,31.42
2022-09-24T05:10:43.280Z,32.30
2022-09-24T05:11:47.815Z,39.88
2022-09-24T05:12:49.788Z,28.35
2022-09-24T05:13:54.437Z,38.10
2022-09-24T05:14:56.408Z,48.30
2022-09-24T05:16:01.362Z,25.02
2022-09-24T05:17:03.360Z,28.13
2022-09-24T05:18:09.033Z,31.60
2022-09-24T05:19:11.065Z,34.42
2022-09-24T05:20:16.861Z,34.53
2022-09-24T05:21:18.848Z,42.47
2022-09-24T05:22:27.508Z,29.08
2022-09-24T05:23:29.529Z,20.63
2022-09-24T05:24:34.248Z,30.02
2022-09-24T05:25:56.322Z,32.95
2022-09-24T05:27:10.572Z,28.38
2022-09-24T05:28:15.410Z,38.53
2022-09-24T05:29:17.390Z,41.00
2022-09-24T05:30:23.818Z,31.25
2022-09-24T05:31:25.853Z,21.42
2022-09-24T05:32:30.473Z,22.98
2022-09-24T05:33:32.489Z,23.40
2022-09-24T05:34:37.265Z,30.42
2022-09-24T05:35:39.367Z,28.38
2022-09-24T05:36:44.743Z,14.85
2022-09-24T05:37:53.865Z,31.17
2022-09-24T05:38:56.112Z,28.65
2022-09-24T05:40:20.808Z,34.70
2022-09-24T05:41:22.882Z,23.52
2022-09-24T05:42:27.471Z,36.47
2022-09-24T05:43:29.589Z,20.40
2022-09-24T05:44:34.546Z,20.02
2022-09-24T05:45:36.576Z,21.30
2022-09-24T05:46:41.185Z,25.50
2022-09-24T05:47:43.220Z,24.15
2022-09-24T05:48:47.826Z,33.60
2022-09-24T05:49:49.811Z,25.83
2022-09-24T05:50:55.424Z,14.40
2022-09-24T05:51:57.521Z,32.20
2022-09-24T05:53:04.850Z,16.80
2022-09-24T05:54:07.165Z,14.40
2022-09-24T05:55:15.919Z,21.35
2022-09-24T05:56:20.979Z,24.50
2022-09-24T05:57:22.978Z,21.33
2022-09-24T05:58:27.853Z,26.20
2022-09-24T05:59:29.903Z,20.48
2022-09-24T06:00:35.684Z,21.10
2022-09-24T06:01:37.935Z,38.55
2022-09-24T06:02:42.680Z,23.70
2022-09-24T06:03:44.742Z,25.20
2022-09-24T06:04:49.322Z,27.55
2022-09-24T06:05:52.069Z,20.73
2022-09-24T06:06:56.937Z,27.08
2022-09-24T06:08:02.259Z,36.30
2022-09-24T06:09:09.017Z,29.15
2022-09-24T06:10:11.457Z,36.05
2022-09-24T06:11:16.025Z,36.60
2022-09-24T06:12:22.302Z,17.00
2022-09-24T06:13:27.052Z,24.70
2022-09-24T06:14:29.285Z,25.23
2022-09-24T06:15:35.125Z,31.27
2022-09-24T06:16:39.842Z,39.78
2022-09-24T06:17:41.895Z,25.27
2022-09-24T06:18:47.412Z,21.33
2022-09-24T06:19:49.441Z,33.53
2022-09-24T06:20:54.920Z,33.88
2022-09-24T06:22:00.189Z,35.30
2022-09-24T06:23:06.630Z,50.05
2022-09-24T06:24:11.665Z,42.65
2022-09-24T06:25:14.021Z,37.28
2022-09-24T06:26:18.970Z,31.88
2022-09-24T06:27:21.068Z,27.90
2022-09-24T06:28:25.743Z,47.15
2022-09-24T06:29:27.854Z,34.05
2022-09-24T06:30:35.693Z,50.20
2022-09-24T06:31:37.871Z,31.92
2022-09-24T06:32:42.545Z,33.70
2022-09-24T06:33:44.676Z,42.17
2022-09-24T06:34:49.497Z,49.78
2022-09-24T06:35:51.649Z,39.42
2022-09-24T06:36:57.240Z,52.28
2022-09-24T06:37:59.299Z,43.83
2022-09-24T06:39:08.058Z,37.85
2022-09-24T06:40:10.793Z,40.78
2022-09-24T06:41:15.676Z,40.88
2022-09-24T06:42:17.646Z,44.10
2022-09-24T06:43:22.388Z,36.38
2022-09-24T06:44:24.363Z,40.22
2022-09-24T06:45:29.414Z,44.00
2022-09-24T06:46:34.057Z,44.05
2022-09-24T06:47:36.264Z,27.35
2022-09-24T06:48:41.368Z,45.88
2022-09-24T06:49:43.308Z,37.53
2022-09-24T06:50:48.231Z,76.90
2022-09-24T06:51:51.073Z,54.13
2022-09-24T06:52:55.906Z,48.88
2022-09-24T06:54:00.454Z,26.27
2022-09-24T06:55:05.964Z,28.25
2022-09-24T06:56:10.519Z,21.85
2022-09-24T06:57:12.788Z,35.50
2022-09-24T06:58:20.169Z,30.10
2022-09-24T06:59:24.872Z,38.70
2022-09-24T07:00:26.958Z,18.50
2022-09-24T07:01:31.610Z,24.48
2022-09-24T07:02:36.615Z,29.33
2022-09-24T07:03:41.792Z,31.23
2022-09-24T07:04:43.858Z,50.00
2022-09-24T07:05:48.423Z,28.70
2022-09-24T07:07:05.413Z,41.15
2022-09-24T07:08:10.035Z,41.85
2022-09-24T07:09:12.771Z,23.90
2022-09-24T07:10:20.152Z,27.50
2022-09-24T07:11:24.954Z,39.85
2022-09-24T07:12:26.924Z,45.70
2022-09-24T07:13:31.559Z,34.80
2022-09-24T07:14:33.570Z,22.13
2022-09-24T07:15:38.271Z,33.83
2022-09-24T07:16:40.352Z,38.20
2022-09-24T07:17:44.880Z,22.88
2022-09-24T07:18:46.875Z,32.63
2022-09-24T07:19:51.543Z,25.15
2022-09-24T07:20:56.720Z,34.45
2022-09-24T07:21:58.956Z,24.30
2022-09-24T07:23:03.769Z,132.30
2022-09-24T07:24:06.332Z,65.30
2022-09-24T07:25:13.518Z,43.47
2022-09-24T07:26:20.699Z,36.20
2022-09-24T07:27:22.696Z,43.92
2022-09-24T07:28:27.332Z,55.42
2022-09-24T07:29:29.277Z,34.45
2022-09-24T07:30:34.475Z,36.83
2022-09-24T07:31:36.880Z,32.80
2022-09-24T07:32:41.866Z,32.53
2022-09-24T07:33:43.914Z,43.85
2022-09-24T07:34:48.805Z,35.92
2022-09-24T07:35:51.226Z,46.10
2022-09-24T07:36:57.262Z,34.75
2022-09-24T07:38:01.073Z,36.10
2022-09-24T07:39:05.923Z,35.78
2022-09-24T07:40:09.361Z,30.38
2022-09-24T07:41:13.951Z,26.65
2022-09-24T07:42:18.819Z,55.05
2022-09-24T07:43:24.248Z,39.17
2022-09-24T07:44:26.269Z,46.63
2022-09-24T07:45:32.469Z,30.50
2022-09-24T07:46:34.688Z,21.88
2022-09-24T07:47:39.804Z,25.67
2022-09-24T07:48:41.853Z,25.23
2022-09-24T07:49:46.625Z,21.27
2022-09-24T07:50:48.610Z,36.53
2022-09-24T07:51:54.171Z,24.30
2022-09-24T07:52:59.440Z,33.83
2022-09-24T07:54:04.642Z,21.02
2022-09-24T07:55:10.921Z,22.35
2022-09-24T07:56:12.941Z,27.38
2022-09-24T07:57:17.533Z,23.73
2022-09-24T07:58:22.129Z,30.13
2022-09-24T07:59:26.783Z,38.47
2022-09-24T08:00:28.774Z,24.70
2022-09-24T08:01:34.444Z,22.90
2022-09-24T08:02:36.717Z,15.13
2022-09-24T08:03:41.404Z,21.38
2022-09-24T08:04:43.714Z,21.48
2022-09-24T08:05:48.623Z,32.67
2022-09-24T08:06:50.592Z,34.58
2022-09-24T08:07:56.189Z,35.53
2022-09-24T08:08:58.183Z,21.98
2022-09-24T08:10:02.977Z,39.45
2022-09-24T08:11:07.794Z,23.58
2022-09-24T08:12:10.140Z,21.48
2022-09-24T08:13:14.922Z,19.15
2022-09-24T08:14:19.906Z,33.53
2022-09-24T08:15:24.991Z,17.00
2022-09-24T08:16:29.861Z,38.05
2022-09-24T08:17:32.015Z,24.83
2022-09-24T08:18:37.107Z,14.45
2022-09-24T08:19:43.326Z,13.73
2022-09-24T08:20:47.903Z,33.58
2022-09-24T08:21:50.371Z,19.58
2022-09-24T08:22:54.923Z,20.75
2022-09-24T08:23:56.912Z,52.88
2022-09-24T08:25:03.196Z,17.23
2022-09-24T08:26:06.119Z,30.35
2022-09-24T08:27:15.012Z,31.95
2022-09-24T08:28:19.970Z,32.28
2022-09-24T08:29:27.093Z,25.75
2022-09-24T08:30:29.707Z,37.50
2022-09-24T08:31:34.911Z,38.35
2022-09-24T08:32:36.950Z,48.53
2022-09-24T08:33:43.941Z,33.72
2022-09-24T08:34:45.902Z,48.47
2022-09-24T08:35:50.706Z,24.75
2022-09-24T08:36:55.410Z,34.78
2022-09-24T08:38:01.364Z,27.13
2022-09-24T08:39:07.023Z,27.38
2022-09-24T08:40:17.155Z,40.60
2022-09-24T08:41:35.983Z,57.25
2022-09-24T08:42:49.421Z,17.88
2022-09-24T08:44:00.529Z,32.85
2022-09-24T08:45:21.421Z,19.55
2022-09-24T08:46:43.786Z,28.50
2022-09-24T08:47:49.280Z,36.17
2022-09-24T08:48:56.327Z,28.55
2022-09-24T08:50:10.235Z,21.38
2022-09-24T08:51:20.250Z,36.85
2022-09-24T08:52:31.461Z,20.67
2022-09-24T08:53:48.790Z,32.50
2022-09-24T08:54:53.217Z,44.67
2022-09-24T08:56:01.499Z,49.20
2022-09-24T08:57:11.931Z,32.20
2022-09-24T08:58:31.607Z,29.02
2022-09-24T08:59:36.546Z,19.63
2022-09-24T09:00:52.885Z,11.82
2022-09-24T09:02:03.105Z,25.60
2022-09-24T09:03:15.223Z,25.10
2022-09-24T09:04:26.515Z,40.88
2022-09-24T09:05:50.410Z,30.35
2022-09-24T09:07:14.413Z,13.55
2022-09-24T09:08:50.534Z,21.67
2022-09-24T09:09:56.593Z,30.38
2022-09-24T09:11:02.366Z,17.25
2022-09-24T09:12:14.646Z,23.83
2022-09-24T09:13:24.111Z,18.75
2022-09-24T09:14:42.433Z,34.22
2022-09-24T09:15:55.000Z,28.42
2022-09-24T09:17:05.070Z,40.92
2022-09-24T09:18:15.604Z,67.10
2022-09-24T09:19:23.353Z,130.57
2022-09-24T09:20:31.948Z,79.00
2022-09-24T09:21:42.679Z,39.75
2022-09-24T09:22:48.349Z,17.08
2022-09-24T09:23:54.711Z,15.30
2022-09-24T09:25:04.412Z,13.80
2022-09-24T09:26:14.231Z,18.10
2022-09-24T09:27:18.458Z,32.60
2022-09-24T09:28:23.526Z,17.50
2022-09-24T09:29:28.300Z,28.45
2022-09-24T09:30:43.630Z,32.05
2022-09-24T09:31:58.776Z,32.33
2022-09-24T09:33:18.847Z,33.38
2022-09-24T09:34:36.701Z,18.92
2022-09-24T09:35:49.254Z,25.10
2022-09-24T09:37:05.077Z,47.72
2022-09-24T09:38:19.655Z,27.02
2022-09-24T09:39:39.002Z,13.30
2022-09-24T09:40:48.548Z,11.50
2022-09-24T09:41:56.735Z,17.70
2022-09-24T09:43:05.745Z,30.83
2022-09-24T09:44:14.268Z,37.25
2022-09-24T09:45:29.742Z,47.15
2022-09-24T09:46:38.079Z,39.63
2022-09-24T09:47:50.943Z,24.77
2022-09-24T09:49:00.095Z,23.13
2022-09-24T09:50:08.707Z,16.75
2022-09-24T09:51:22.342Z,25.83
2022-09-24T09:52:28.829Z,17.27
2022-09-24T09:53:34.210Z,37.65
2022-09-24T09:54:37.187Z,24.45
2022-09-24T09:55:41.744Z,29.35
2022-09-24T09:56:47.475Z,17.00
2022-09-24T09:57:53.248Z,21.52
2022-09-24T09:59:07.438Z,33.85
2022-09-24T10:00:25.784Z,32.47
2022-09-24T10:01:35.035Z,24.30
2022-09-24T10:02:46.199Z,20.73
2022-09-24T10:03:50.990Z,11.32
2022-09-24T10:04:58.983Z,23.65
2022-09-24T10:06:03.609Z,12.00
2022-09-24T10:07:10.751Z,36.22
2022-09-24T10:08:24.371Z,15.32
2022-09-24T10:09:26.435Z,26.92
2022-09-24T10:10:31.917Z,14.88
2022-09-24T10:11:34.141Z,22.63
2022-09-24T10:12:38.876Z,27.20
2022-09-24T10:13:40.876Z,37.95
2022-09-24T10:14:45.943Z,32.60
2022-09-24T10:15:56.133Z,27.00
2022-09-24T10:17:05.354Z,25.98
2022-09-24T10:18:17.182Z,33.40
2022-09-24T10:19:23.697Z,40.88
2022-09-24T10:20:32.769Z,14.55
2022-09-24T10:21:37.240Z,24.25
2022-09-24T10:22:42.696Z,9.88
2022-09-24T10:23:48.645Z,13.77
2022-09-24T10:24:54.364Z,25.45
2022-09-24T10:26:02.572Z,15.27
2022-09-24T10:27:12.180Z,11.30
2022-09-24T10:28:35.110Z,13.88
2022-09-24T10:29:52.168Z,25.65
2022-09-24T10:31:01.762Z,35.28
2022-09-24T10:32:05.448Z,29.48
2022-09-24T10:33:10.434Z,87.35
2022-09-24T10:34:24.786Z,6.78
2022-09-24T10:35:31.681Z,105.70
2022-09-24T10:36:33.734Z,56.78
2022-09-24T10:37:38.605Z,12.80
2022-09-24T10:38:40.665Z,264.80
2022-09-24T10:39:45.429Z,452.10
2022-09-24T10:40:48.193Z,682.50
2022-09-24T10:41:54.805Z,141.70
2022-09-24T10:42:59.061Z,53.65
2022-09-24T10:44:06.450Z,18.23
2022-09-24T10:45:14.097Z,11.70
2022-09-24T10:46:40.749Z,18.88
2022-09-24T10:47:51.097Z,140.05
2022-09-24T10:49:06.988Z,271.98
2022-09-24T10:50:40.588Z,82.15
2022-09-24T10:51:54.491Z,40.50
2022-09-24T10:53:06.583Z,72.40
2022-09-24T10:54:28.015Z,103.10
2022-09-24T10:55:55.502Z,126.00
2022-09-24T10:57:00.127Z,69.45
2022-09-24T10:58:10.276Z,90.85
2022-09-24T10:59:29.716Z,142.77
2022-09-24T11:00:41.819Z,192.20
2022-09-24T11:01:52.454Z,60.88
2022-09-24T11:03:32.325Z,71.38
2022-09-24T11:04:47.880Z,55.22
2022-09-24T11:05:59.261Z,41.17
2022-09-24T11:07:31.547Z,37.28
2022-09-24T11:09:56.174Z,29.92
2022-09-24T11:11:24.527Z,16.75
2022-09-24T11:12:31.942Z,23.70
2022-09-24T11:13:46.865Z,40.00
2022-09-24T11:15:12.019Z,34.95
2022-09-24T11:16:41.857Z,11.45
2022-09-24T11:17:55.183Z,16.65
2022-09-24T11:19:04.519Z,30.73
